Time;durP1;ratioP1;P1;durP2;ratioP2;P2;SDS_P1;SDS_P2;PMS_P1;PMS_P2;Temp;Humidity;BMP_temperature;BMP_pressure;BME280_temperature;BME280_humidity;BME280_pressure;Samples;Min_cycle;Max_cycle;Signal;HPM_P1;HPM_P2
2022/12/04 00:00:43;;;;;;;31.00;18.98;;;;;;;;;;5035594;28;20209;-67
2022/12/04 00:03:10;;;;;;;30.60;18.35;;;;;;;;;;5034923;28;20486;-68
2022/12/04 00:05:36;;;;;;;32.67;19.30;;;;;;;;;;5034393;28;20305;-68
2022/12/04 00:08:03;;;;;;;27.52;17.33;;;;;;;;;;5034605;28;20525;-68
2022/12/04 00:10:29;;;;;;;25.60;16.52;;;;;;;;;;5034929;28;20556;-67
2022/12/04 00:12:57;;;;;;;25.48;16.67;;;;;;;;;;5034784;28;20213;-67
2022/12/04 00:15:23;;;;;;;28.48;18.08;;;;;;;;;;5034855;28;20206;-69
2022/12/04 00:17:50;;;;;;;25.85;16.50;;;;;;;;;;5035103;27;20242;-68
2022/12/04 00:20:16;;;;;;;25.60;15.63;;;;;;;;;;5035041;28;20284;-68
2022/12/04 00:22:43;;;;;;;26.30;16.63;;;;;;;;;;5035029;28;20307;-68
2022/12/04 00:25:09;;;;;;;23.27;15.68;;;;;;;;;;5034931;28;20216;-68
2022/12/04 00:27:36;;;;;;;25.90;15.88;;;;;;;;;;5034573;28;20243;-68
2022/12/04 00:30:04;;;;;;;21.55;14.80;;;;;;;;;;5034721;28;20217;-68
2022/12/04 00:32:30;;;;;;;25.55;16.15;;;;;;;;;;5034453;28;20509;-68
2022/12/04 00:34:57;;;;;;;25.15;16.23;;;;;;;;;;5034548;28;20277;-68
2022/12/04 00:37:23;;;;;;;24.63;15.82;;;;;;;;;;5034703;28;20564;-68
2022/12/04 00:39:49;;;;;;;23.23;15.82;;;;;;;;;;5034500;28;20281;-68
2022/12/04 00:42:16;;;;;;;23.27;15.13;;;;;;;;;;5034031;28;20301;-68
2022/12/04 00:44:42;;;;;;;20.98;14.80;;;;;;;;;;5035069;28;20238;-68
2022/12/04 00:47:10;;;;;;;20.27;14.32;;;;;;;;;;5034846;28;20277;-68
2022/12/04 00:49:36;;;;;;;22.17;15.52;;;;;;;;;;5034484;28;20209;-68
2022/12/04 00:52:03;;;;;;;22.58;16.08;;;;;;;;;;5034138;28;20206;-68
2022/12/04 00:54:30;;;;;;;21.42;15.45;;;;;;;;;;5034682;28;20238;-68
2022/12/04 00:56:57;;;;;;;24.95;16.33;;;;;;;;;;5034645;28;20276;-68
2022/12/04 00:59:23;;;;;;;27.00;17.27;;;;;;;;;;5034550;28;20577;-68
2022/12/04 01:01:49;;;;;;;21.38;15.27;;;;;;;;;;5034165;28;20228;-68
2022/12/04 01:04:17;;;;;;;22.95;15.93;;;;;;;;;;5034403;28;20319;-68
2022/12/04 01:06:43;;;;;;;24.75;16.38;;;;;;;;;;5034439;28;20245;-68
2022/12/04 01:09:10;;;;;;;23.85;15.73;;;;;;;;;;5034309;28;20282;-68
2022/12/04 01:11:37;;;;;;;21.98;15.65;;;;;;;;;;5034602;28;20285;-68
2022/12/04 01:14:03;;;;;;;22.88;15.40;;;;;;;;;;5034512;28;20468;-68
2022/12/04 01:16:30;;;;;;;23.17;15.77;;;;;;;;;;5032841;28;20364;-68
2022/12/04 01:18:57;;;;;;;23.27;15.50;;;;;;;;;;5033810;28;20241;-68
2022/12/04 01:21:24;;;;;;;23.38;15.77;;;;;;;;;;5033873;28;20218;-68
2022/12/04 01:23:51;;;;;;;23.63;15.57;;;;;;;;;;5034302;28;20247;-68
2022/12/04 01:26:17;;;;;;;25.50;16.88;;;;;;;;;;5033946;28;20276;-68
2022/12/04 01:28:44;;;;;;;23.48;16.27;;;;;;;;;;5033859;28;20293;-68
2022/12/04 01:31:12;;;;;;;23.58;16.10;;;;;;;;;;5033752;28;20236;-68
2022/12/04 01:33:39;;;;;;;24.05;15.85;;;;;;;;;;5033789;28;20412;-68
2022/12/04 01:36:06;;;;;;;23.75;16.27;;;;;;;;;;5034068;28;20202;-68
2022/12/04 01:38:34;;;;;;;23.75;16.45;;;;;;;;;;5034205;28;20210;-68
2022/12/04 01:41:02;;;;;;;20.08;14.18;;;;;;;;;;5034002;28;20209;-68
2022/12/04 01:43:29;;;;;;;23.05;15.65;;;;;;;;;;5033944;28;20282;-68
2022/12/04 01:45:56;;;;;;;23.40;16.33;;;;;;;;;;5034141;28;20209;-68
2022/12/04 01:48:25;;;;;;;24.50;15.95;;;;;;;;;;5033708;28;20210;-68
2022/12/04 01:50:53;;;;;;;22.80;16.45;;;;;;;;;;5033589;28;20202;-68
2022/12/04 01:53:20;;;;;;;25.42;16.80;;;;;;;;;;5033793;28;20206;-68
2022/12/04 01:55:47;;;;;;;24.35;16.10;;;;;;;;;;5033577;28;20417;-68
2022/12/04 01:58:15;;;;;;;24.42;17.40;;;;;;;;;;5033177;28;20216;-68
2022/12/04 02:00:41;;;;;;;27.20;18.33;;;;;;;;;;5033495;28;20205;-68
2022/12/04 02:03:08;;;;;;;30.13;19.63;;;;;;;;;;5033230;28;20221;-68
2022/12/04 02:05:34;;;;;;;26.85;18.33;;;;;;;;;;5033331;28;20209;-68
2022/12/04 02:08:04;;;;;;;34.28;20.23;;;;;;;;;;5033307;28;20217;-68
2022/12/04 02:10:35;;;;;;;29.50;19.00;;;;;;;;;;5033360;28;20213;-68
2022/12/04 02:13:06;;;;;;;28.00;18.27;;;;;;;;;;5033209;28;20276;-68
2022/12/04 02:15:35;;;;;;;30.33;18.55;;;;;;;;;;5033202;28;20215;-68
2022/12/04 02:18:06;;;;;;;30.67;18.73;;;;;;;;;;5033085;28;20216;-68
2022/12/04 02:20:33;;;;;;;27.13;17.67;;;;;;;;;;5033005;28;20227;-68
2022/12/04 02:23:19;;;;;;;25.00;16.50;;;;;;;;;;5032952;28;20236;-68
2022/12/04 02:25:53;;;;;;;24.98;15.75;;;;;;;;;;5033654;28;20238;-68
2022/12/04 02:28:22;;;;;;;26.48;16.00;;;;;;;;;;5035456;28;20576;-68
2022/12/04 02:30:50;;;;;;;25.75;15.65;;;;;;;;;;5037157;28;20209;-68
2022/12/04 02:33:19;;;;;;;23.98;15.20;;;;;;;;;;5036615;28;20397;-68
2022/12/04 02:35:47;;;;;;;25.95;15.35;;;;;;;;;;5036551;28;20548;-68
2022/12/04 02:38:16;;;;;;;25.67;15.73;;;;;;;;;;5036440;28;20513;-68
2022/12/04 02:40:48;;;;;;;25.70;15.02;;;;;;;;;;5036223;28;20213;-68
2022/12/04 02:43:16;;;;;;;25.50;14.95;;;;;;;;;;5036448;28;20230;-68
2022/12/04 02:45:45;;;;;;;26.80;16.02;;;;;;;;;;5036562;28;20213;-68
2022/12/04 02:48:14;;;;;;;26.95;16.73;;;;;;;;;;5036168;28;20464;-68
2022/12/04 02:50:41;;;;;;;25.20;15.05;;;;;;;;;;5029775;28;20476;-68
2022/12/04 02:53:09;;;;;;;24.75;15.32;;;;;;;;;;5035604;28;20509;-68
2022/12/04 02:55:37;;;;;;;26.55;15.85;;;;;;;;;;5035978;28;20214;-68
2022/12/04 02:58:06;;;;;;;25.77;15.25;;;;;;;;;;5036169;28;20210;-68
2022/12/04 03:00:32;;;;;;;24.67;15.32;;;;;;;;;;5036263;28;20611;-68
2022/12/04 03:03:01;;;;;;;25.55;14.90;;;;;;;;;;5036016;28;20243;-68
2022/12/04 03:05:33;;;;;;;23.60;14.45;;;;;;;;;;5036127;28;20216;-68
2022/12/04 03:08:04;;;;;;;24.20;15.35;;;;;;;;;;5035946;28;20209;-68
2022/12/04 03:10:32;;;;;;;23.63;15.13;;;;;;;;;;5036585;28;20406;-68
2022/12/04 03:13:01;;;;;;;23.30;14.95;;;;;;;;;;5036029;28;20206;-68
2022/12/04 03:15:30;;;;;;;22.75;14.52;;;;;;;;;;5036086;28;20210;-68
2022/12/04 03:18:00;;;;;;;25.13;15.32;;;;;;;;;;5035897;28;20237;-68
2022/12/04 03:20:29;;;;;;;25.30;14.77;;;;;;;;;;5036155;28;20217;-68
2022/12/04 03:22:59;;;;;;;23.98;14.68;;;;;;;;;;5035551;28;20229;-68
2022/12/04 03:25:28;;;;;;;24.67;14.77;;;;;;;;;;5036106;28;20210;-68
2022/12/04 03:27:57;;;;;;;21.20;14.10;;;;;;;;;;5035430;28;20603;-68
2022/12/04 03:30:23;;;;;;;23.92;14.40;;;;;;;;;;5035763;28;20487;-68
2022/12/04 03:32:51;;;;;;;21.38;13.90;;;;;;;;;;5035545;28;20202;-68
2022/12/04 03:35:21;;;;;;;22.05;14.07;;;;;;;;;;5035829;28;20210;-68
2022/12/04 03:37:53;;;;;;;20.17;13.45;;;;;;;;;;5035367;28;20216;-68
2022/12/04 03:40:22;;;;;;;24.08;14.05;;;;;;;;;;5034585;28;20206;-68
2022/12/04 03:42:51;;;;;;;20.05;12.80;;;;;;;;;;5035499;28;20240;-68
2022/12/04 03:45:21;;;;;;;19.90;12.85;;;;;;;;;;5035539;28;20216;-68
2022/12/04 03:47:51;;;;;;;20.85;12.80;;;;;;;;;;5035260;28;20279;-68
2022/12/04 03:50:21;;;;;;;23.42;14.40;;;;;;;;;;5035730;28;20210;-68
2022/12/04 03:52:51;;;;;;;23.02;13.75;;;;;;;;;;5035552;28;20194;-68
2022/12/04 03:55:22;;;;;;;24.40;14.50;;;;;;;;;;5035512;28;20216;-68
2022/12/04 03:57:49;;;;;;;26.42;15.52;;;;;;;;;;5035528;28;20276;-68
2022/12/04 04:00:17;;;;;;;22.10;13.90;;;;;;;;;;5035361;28;20210;-68
2022/12/04 04:02:44;;;;;;;20.10;13.25;;;;;;;;;;5035001;28;20505;-68
2022/12/04 04:05:11;;;;;;;21.27;13.07;;;;;;;;;;5035184;28;20543;-68
2022/12/04 04:07:40;;;;;;;21.05;13.60;;;;;;;;;;5034972;28;20216;-68
2022/12/04 04:10:12;;;;;;;22.45;13.15;;;;;;;;;;5035375;28;20225;-68
2022/12/04 04:12:40;;;;;;;21.88;13.98;;;;;;;;;;5034865;28;20206;-68
2022/12/04 04:26:22;;;;;;;20.52;12.98;;;;;;;;;;5017558;28;20255;-68
2022/12/04 04:28:48;;;;;;;19.17;12.65;;;;;;;;;;5034736;28;20232;-68
2022/12/04 04:31:20;;;;;;;20.02;11.98;;;;;;;;;;5034767;28;20474;-68
2022/12/04 04:33:48;;;;;;;24.10;14.02;;;;;;;;;;5034497;28;20218;-68
2022/12/04 04:36:17;;;;;;;21.48;12.55;;;;;;;;;;5034649;28;20202;-68
2022/12/04 04:38:45;;;;;;;20.27;12.77;;;;;;;;;;5034415;28;20233;-68
2022/12/04 04:41:15;;;;;;;19.17;11.45;;;;;;;;;;5034525;28;20409;-68
2022/12/04 04:43:48;;;;;;;20.60;13.23;;;;;;;;;;5034641;28;20241;-67
2022/12/04 04:46:17;;;;;;;20.30;13.43;;;;;;;;;;5034986;28;20210;-67
2022/12/04 04:48:44;;;;;;;21.63;13.25;;;;;;;;;;5034701;28;20214;-67
2022/12/04 04:51:11;;;;;;;18.27;11.88;;;;;;;;;;5034305;28;20216;-67
2022/12/04 04:53:40;;;;;;;22.63;13.38;;;;;;;;;;5034401;28;20277;-67
2022/12/04 04:56:07;;;;;;;19.88;12.32;;;;;;;;;;5034507;28;20524;-67
2022/12/04 04:58:34;;;;;;;20.27;12.57;;;;;;;;;;5034146;28;20206;-68
2022/12/04 05:01:03;;;;;;;20.08;12.60;;;;;;;;;;5034184;28;20209;-68
2022/12/04 05:03:30;;;;;;;19.92;12.65;;;;;;;;;;5034237;28;20229;-68
2022/12/04 05:05:56;;;;;;;20.55;12.82;;;;;;;;;;5034272;28;20216;-68
2022/12/04 05:08:23;;;;;;;17.90;12.90;;;;;;;;;;5034365;28;20549;-68
2022/12/04 05:10:49;;;;;;;17.85;11.43;;;;;;;;;;5034041;28;20210;-68
2022/12/04 05:13:16;;;;;;;20.13;12.35;;;;;;;;;;5034588;28;20229;-68
2022/12/04 05:15:42;;;;;;;21.65;13.07;;;;;;;;;;5034364;27;20232;-68
2022/12/04 05:18:10;;;;;;;20.13;12.63;;;;;;;;;;5034288;28;20209;-68
2022/12/04 05:20:38;;;;;;;19.77;12.15;;;;;;;;;;5034017;28;20424;-68
2022/12/04 05:23:04;;;;;;;19.10;12.10;;;;;;;;;;5034057;28;20563;-68
2022/12/04 05:25:30;;;;;;;21.10;12.15;;;;;;;;;;5034153;28;20209;-68
2022/12/04 05:27:57;;;;;;;21.73;12.95;;;;;;;;;;5034052;28;20225;-68
2022/12/04 05:30:23;;;;;;;19.23;12.95;;;;;;;;;;5034463;28;20205;-68
2022/12/04 05:32:50;;;;;;;20.10;12.70;;;;;;;;;;5033761;28;20210;-68
2022/12/04 05:35:17;;;;;;;19.58;13.15;;;;;;;;;;5033960;28;20272;-68
2022/12/04 05:37:44;;;;;;;21.02;13.30;;;;;;;;;;5034259;28;20210;-68
2022/12/04 05:40:11;;;;;;;19.60;12.40;;;;;;;;;;5034058;28;20284;-68
2022/12/04 05:42:37;;;;;;;18.73;12.23;;;;;;;;;;5033760;28;20447;-68
2022/12/04 05:45:03;;;;;;;17.85;11.30;;;;;;;;;;5033641;28;20226;-68
2022/12/04 05:47:30;;;;;;;19.02;12.68;;;;;;;;;;5033521;28;20535;-68
2022/12/04 05:49:56;;;;;;;19.05;11.60;;;;;;;;;;5033848;28;20216;-68
2022/12/04 05:52:24;;;;;;;19.10;12.18;;;;;;;;;;5033487;28;20222;-68
2022/12/04 05:54:50;;;;;;;19.27;12.73;;;;;;;;;;5033669;28;20206;-68
2022/12/04 05:57:17;;;;;;;19.17;11.77;;;;;;;;;;5033480;28;20216;-69
2022/12/04 05:59:43;;;;;;;18.70;11.65;;;;;;;;;;5033549;28;20209;-68
2022/12/04 06:02:09;;;;;;;19.38;11.82;;;;;;;;;;5033184;28;20216;-68
2022/12/04 06:04:37;;;;;;;21.63;12.20;;;;;;;;;;5037011;28;20459;-68
2022/12/04 06:07:03;;;;;;;18.50;11.45;;;;;;;;;;5037313;28;20568;-68
2022/12/04 06:09:31;;;;;;;19.83;11.68;;;;;;;;;;5036748;28;20233;-68
2022/12/04 06:11:57;;;;;;;19.27;11.82;;;;;;;;;;5036843;28;20594;-68
2022/12/04 06:14:24;;;;;;;17.88;11.63;;;;;;;;;;5037199;28;20391;-68
2022/12/04 06:16:50;;;;;;;18.42;12.48;;;;;;;;;;5036871;28;20212;-68
2022/12/04 06:19:17;;;;;;;17.42;11.18;;;;;;;;;;5036522;28;20379;-68
2022/12/04 06:21:44;;;;;;;19.20;12.63;;;;;;;;;;5036237;28;20209;-68
2022/12/04 06:24:12;;;;;;;17.75;11.75;;;;;;;;;;5036773;28;20232;-68
2022/12/04 06:26:39;;;;;;;19.92;11.85;;;;;;;;;;5036513;28;20209;-68
2022/12/04 06:29:06;;;;;;;19.33;12.57;;;;;;;;;;5036586;28;20226;-68
2022/12/04 06:31:34;;;;;;;19.23;12.63;;;;;;;;;;5036717;28;20535;-68
2022/12/04 06:34:01;;;;;;;21.38;12.82;;;;;;;;;;5037234;28;20230;-68
2022/12/04 06:36:27;;;;;;;18.10;12.10;;;;;;;;;;5036703;28;20399;-68
2022/12/04 06:38:54;;;;;;;17.45;11.27;;;;;;;;;;5036399;28;20209;-68
2022/12/04 06:41:21;;;;;;;20.90;12.82;;;;;;;;;;5036157;28;20381;-68
2022/12/04 06:43:50;;;;;;;20.77;12.80;;;;;;;;;;5036100;28;20301;-68
2022/12/04 06:46:18;;;;;;;20.10;12.80;;;;;;;;;;5036534;28;20210;-68
2022/12/04 06:48:45;;;;;;;24.80;13.98;;;;;;;;;;5036240;28;20214;-68
2022/12/04 06:51:14;;;;;;;20.02;13.20;;;;;;;;;;5036365;28;20409;-68
2022/12/04 06:53:40;;;;;;;18.73;12.25;;;;;;;;;;5036227;28;20212;-68
2022/12/04 06:56:07;;;;;;;18.42;12.07;;;;;;;;;;5036367;28;20210;-68
2022/12/04 06:58:34;;;;;;;19.95;13.18;;;;;;;;;;5036246;28;20201;-68
2022/12/04 07:01:05;;;;;;;18.98;11.95;;;;;;;;;;5036441;28;20208;-68
2022/12/04 07:03:31;;;;;;;19.13;12.65;;;;;;;;;;5036430;28;20551;-68
2022/12/04 07:05:58;;;;;;;19.23;12.65;;;;;;;;;;5036342;28;20210;-68
2022/12/04 07:08:24;;;;;;;17.25;11.55;;;;;;;;;;5036373;28;20521;-68
2022/12/04 07:10:51;;;;;;;21.60;13.05;;;;;;;;;;5036380;28;20362;-68
2022/12/04 07:13:17;;;;;;;18.08;12.13;;;;;;;;;;5035762;28;20216;-57
2022/12/04 07:15:43;;;;;;;17.58;12.00;;;;;;;;;;5035940;28;20210;-55
2022/12/04 07:18:11;;;;;;;17.98;11.27;;;;;;;;;;5035233;28;20565;-56
2022/12/04 07:20:39;;;;;;;17.67;11.40;;;;;;;;;;5035511;28;20511;-57
2022/12/04 07:23:05;;;;;;;17.48;11.88;;;;;;;;;;5035307;28;20714;-57
2022/12/04 07:25:31;;;;;;;17.17;11.57;;;;;;;;;;5035495;28;20229;-57
2022/12/04 07:27:58;;;;;;;20.50;12.07;;;;;;;;;;5035159;28;20583;-57
2022/12/04 07:30:24;;;;;;;18.17;11.45;;;;;;;;;;5035396;28;20330;-57
2022/12/04 07:32:50;;;;;;;17.58;11.27;;;;;;;;;;5034961;28;20422;-56
2022/12/04 07:35:18;;;;;;;17.17;11.85;;;;;;;;;;5035845;28;20576;-57
2022/12/04 07:37:46;;;;;;;18.40;11.15;;;;;;;;;;5035187;28;20205;-57
2022/12/04 07:40:13;;;;;;;16.33;10.50;;;;;;;;;;5037858;28;20202;-57
2022/12/04 07:42:39;;;;;;;20.10;12.15;;;;;;;;;;5040954;28;20198;-57
2022/12/04 07:45:06;;;;;;;17.85;11.43;;;;;;;;;;5040739;28;20214;-56
2022/12/04 07:47:34;;;;;;;14.90;10.98;;;;;;;;;;5040748;28;20209;-57
2022/12/04 07:50:00;;;;;;;19.10;11.32;;;;;;;;;;5040777;28;20501;-57
2022/12/04 07:52:28;;;;;;;17.02;10.88;;;;;;;;;;5040991;28;20441;-57
2022/12/04 07:54:54;;;;;;;18.00;10.65;;;;;;;;;;5040934;28;20216;-58
2022/12/04 07:57:21;;;;;;;19.63;11.98;;;;;;;;;;5040618;28;20206;-57
2022/12/04 07:59:47;;;;;;;17.27;11.02;;;;;;;;;;5040302;28;20204;-58
2022/12/04 08:02:13;;;;;;;16.77;10.93;;;;;;;;;;5040461;28;20408;-57
2022/12/04 08:04:40;;;;;;;19.30;11.63;;;;;;;;;;5040626;28;20224;-57
2022/12/04 08:07:06;;;;;;;17.20;11.48;;;;;;;;;;5040751;28;20198;-57
2022/12/04 08:09:33;;;;;;;16.63;11.40;;;;;;;;;;5040291;28;20210;-57
2022/12/04 08:12:00;;;;;;;20.65;12.35;;;;;;;;;;5040765;28;20198;-57
2022/12/04 08:14:26;;;;;;;21.10;12.57;;;;;;;;;;5040122;28;20194;-57
2022/12/04 08:16:52;;;;;;;21.10;12.68;;;;;;;;;;5040531;28;20194;-57
2022/12/04 08:19:19;;;;;;;20.48;12.45;;;;;;;;;;5039801;28;20238;-60
2022/12/04 08:21:45;;;;;;;16.55;11.50;;;;;;;;;;5040271;28;20198;-58
2022/12/04 08:24:11;;;;;;;16.23;10.85;;;;;;;;;;5040165;28;20218;-58
2022/12/04 08:26:39;;;;;;;18.65;11.52;;;;;;;;;;5039624;28;20204;-58
2022/12/04 08:29:05;;;;;;;17.88;11.80;;;;;;;;;;5039898;28;20225;-57
2022/12/04 08:31:33;;;;;;;20.38;12.40;;;;;;;;;;5040291;28;20244;-57
2022/12/04 08:34:00;;;;;;;18.58;11.77;;;;;;;;;;5040308;28;20200;-57
2022/12/04 08:36:27;;;;;;;18.17;12.15;;;;;;;;;;5040209;27;20204;-57
2022/12/04 08:38:54;;;;;;;19.98;11.93;;;;;;;;;;5039765;28;20501;-57
2022/12/04 08:41:22;;;;;;;20.33;12.30;;;;;;;;;;5039823;28;20211;-57
2022/12/04 08:43:50;;;;;;;20.85;13.18;;;;;;;;;;5040043;28;20374;-57
2022/12/04 08:46:17;;;;;;;18.65;13.25;;;;;;;;;;5040312;28;20248;-57
2022/12/04 08:48:44;;;;;;;17.85;12.18;;;;;;;;;;5039877;27;20230;-57
2022/12/04 08:51:12;;;;;;;20.05;12.73;;;;;;;;;;5039953;28;20201;-57
2022/12/04 08:53:39;;;;;;;18.80;13.27;;;;;;;;;;5039648;28;20225;-56
2022/12/04 08:56:05;;;;;;;23.70;14.20;;;;;;;;;;5039848;28;20294;-56
2022/12/04 08:58:32;;;;;;;21.08;14.00;;;;;;;;;;5039651;28;20269;-57
2022/12/04 09:01:04;;;;;;;21.65;13.73;;;;;;;;;;5039592;28;20198;-58
2022/12/04 09:03:30;;;;;;;22.92;13.68;;;;;;;;;;5039705;28;20246;-57
2022/12/04 09:05:58;;;;;;;20.92;13.57;;;;;;;;;;5039840;28;20224;-57
2022/12/04 09:08:24;;;;;;;21.98;13.48;;;;;;;;;;5039898;28;20198;-58
2022/12/04 09:10:51;;;;;;;19.70;13.57;;;;;;;;;;5039746;28;20204;-57
2022/12/04 09:13:17;;;;;;;20.50;13.70;;;;;;;;;;5039664;28;20198;-56
2022/12/04 09:15:43;;;;;;;19.40;12.48;;;;;;;;;;5039767;28;20204;-57
2022/12/04 09:18:11;;;;;;;22.70;13.88;;;;;;;;;;5039376;28;20206;-57
2022/12/04 09:20:37;;;;;;;19.92;13.68;;;;;;;;;;5039480;28;20209;-57
2022/12/04 09:23:04;;;;;;;23.63;14.65;;;;;;;;;;5039799;28;20354;-57
2022/12/04 09:25:30;;;;;;;23.98;14.93;;;;;;;;;;5039614;28;20222;-57
2022/12/04 09:27:57;;;;;;;23.00;15.13;;;;;;;;;;5039486;28;20289;-58
2022/12/04 09:30:23;;;;;;;22.75;15.50;;;;;;;;;;5039539;28;20209;-57
2022/12/04 09:32:49;;;;;;;20.75;14.95;;;;;;;;;;5039924;28;20380;-57
2022/12/04 09:35:17;;;;;;;19.55;14.25;;;;;;;;;;5039365;28;20194;-57
2022/12/04 09:37:43;;;;;;;23.38;14.52;;;;;;;;;;5038222;28;20274;-58
2022/12/04 09:40:20;;;;;;;24.88;15.25;;;;;;;;;;5039642;27;20229;-57
2022/12/04 09:42:49;;;;;;;25.02;14.63;;;;;;;;;;5039385;28;20197;-58
2022/12/04 09:45:17;;;;;;;20.30;13.95;;;;;;;;;;5039062;28;20229;-58
2022/12/04 09:47:45;;;;;;;20.20;14.05;;;;;;;;;;5038938;28;20549;-57
2022/12/04 09:50:14;;;;;;;22.83;15.07;;;;;;;;;;5039420;28;20489;-56
2022/12/04 09:52:47;;;;;;;25.83;15.95;;;;;;;;;;5039033;28;20273;-58
2022/12/04 09:55:15;;;;;;;20.70;14.50;;;;;;;;;;5038915;28;20196;-58
2022/12/04 09:57:43;;;;;;;20.95;13.30;;;;;;;;;;5038747;28;20201;-58
2022/12/04 10:00:12;;;;;;;20.33;13.85;;;;;;;;;;5039054;28;20204;-58
2022/12/04 10:02:39;;;;;;;21.23;14.35;;;;;;;;;;5038939;28;20270;-58
2022/12/04 10:05:07;;;;;;;22.67;15.38;;;;;;;;;;5038787;28;20218;-57
2022/12/04 10:07:35;;;;;;;22.73;15.88;;;;;;;;;;5039157;28;20204;-58
2022/12/04 10:10:05;;;;;;;23.77;15.45;;;;;;;;;;5038810;28;20198;-58
2022/12/04 10:12:36;;;;;;;24.63;15.05;;;;;;;;;;5039228;28;20198;-58
2022/12/04 10:15:06;;;;;;;23.15;15.20;;;;;;;;;;5038880;28;20196;-58
2022/12/04 10:17:40;;;;;;;23.52;15.55;;;;;;;;;;5038653;28;20204;-58
2022/12/04 10:20:15;;;;;;;22.92;14.90;;;;;;;;;;5038881;28;20221;-58
2022/12/04 10:22:48;;;;;;;23.15;15.30;;;;;;;;;;5038834;28;20197;-58
2022/12/04 10:25:17;;;;;;;23.77;16.42;;;;;;;;;;5038753;28;20429;-57
2022/12/04 10:27:48;;;;;;;26.98;16.67;;;;;;;;;;5038317;28;20435;-58
2022/12/04 10:30:16;;;;;;;24.27;15.77;;;;;;;;;;5038929;28;20198;-58
2022/12/04 10:32:44;;;;;;;27.10;17.00;;;;;;;;;;5038528;28;20208;-58
2022/12/04 10:35:18;;;;;;;26.55;16.65;;;;;;;;;;5038750;28;20202;-58
2022/12/04 10:37:45;;;;;;;27.90;16.83;;;;;;;;;;5038408;28;20197;-57
2022/12/04 10:40:15;;;;;;;23.98;15.32;;;;;;;;;;5038544;28;20370;-57
2022/12/04 10:42:46;;;;;;;23.45;15.27;;;;;;;;;;5038462;28;20198;-58
2022/12/04 10:45:13;;;;;;;23.45;14.93;;;;;;;;;;5038760;28;20229;-58
2022/12/04 10:47:39;;;;;;;28.17;16.48;;;;;;;;;;5038140;28;20212;-58
2022/12/04 10:50:14;;;;;;;25.92;15.75;;;;;;;;;;5041411;28;20204;-58
2022/12/04 10:52:40;;;;;;;21.80;14.88;;;;;;;;;;5041871;28;20201;-57
2022/12/04 10:55:07;;;;;;;23.45;15.32;;;;;;;;;;5041779;28;20194;-58
2022/12/04 10:57:37;;;;;;;20.02;13.13;;;;;;;;;;5041844;28;20205;-58
2022/12/04 11:00:22;;;;;;;23.67;14.32;;;;;;;;;;5041730;28;20197;-58
2022/12/04 11:02:49;;;;;;;22.83;14.40;;;;;;;;;;5041657;28;20392;-57
2022/12/04 11:05:23;;;;;;;22.73;14.13;;;;;;;;;;5041535;28;20218;-58
2022/12/04 11:07:50;;;;;;;20.67;13.55;;;;;;;;;;5041665;28;20269;-58
2022/12/04 11:10:20;;;;;;;21.98;13.95;;;;;;;;;;5041718;28;20221;-58
2022/12/04 11:12:53;;;;;;;24.58;14.27;;;;;;;;;;5041680;28;20278;-58
2022/12/04 11:15:20;;;;;;;22.45;13.88;;;;;;;;;;5041528;28;20441;-58
2022/12/04 11:17:47;;;;;;;22.48;13.93;;;;;;;;;;5041192;28;20505;-57
2022/12/04 11:20:15;;;;;;;24.80;14.60;;;;;;;;;;5041372;28;20206;-58
2022/12/04 11:22:49;;;;;;;25.42;15.00;;;;;;;;;;5041536;28;20198;-58
2022/12/04 11:25:18;;;;;;;23.85;15.45;;;;;;;;;;5041501;28;20213;-58
2022/12/04 11:27:46;;;;;;;25.85;15.02;;;;;;;;;;5041066;28;20403;-57
2022/12/04 11:30:14;;;;;;;25.50;15.18;;;;;;;;;;5041173;28;20384;-57
2022/12/04 11:32:44;;;;;;;22.17;13.93;;;;;;;;;;5041274;28;20269;-58
2022/12/04 11:35:12;;;;;;;24.27;14.27;;;;;;;;;;5041433;28;20194;-58
2022/12/04 11:37:39;;;;;;;25.20;13.52;;;;;;;;;;5040953;28;20232;-58
2022/12/04 11:40:13;;;;;;;23.20;15.05;;;;;;;;;;5041479;28;20201;-57
2022/12/04 11:42:40;;;;;;;24.60;15.02;;;;;;;;;;5041146;28;20197;-57
2022/12/04 11:45:19;;;;;;;23.48;14.95;;;;;;;;;;5041129;28;20232;-58
2022/12/04 11:47:54;;;;;;;20.90;14.15;;;;;;;;;;5041114;28;20395;-58
2022/12/04 11:50:25;;;;;;;21.70;13.65;;;;;;;;;;5041106;28;20201;-57
2022/12/04 11:52:58;;;;;;;22.17;13.60;;;;;;;;;;5040843;28;20228;-58
2022/12/04 11:55:25;;;;;;;22.25;14.23;;;;;;;;;;5041162;28;20232;-57
2022/12/04 11:57:58;;;;;;;24.33;14.68;;;;;;;;;;5040804;28;20229;-58
2022/12/04 12:00:26;;;;;;;21.63;13.20;;;;;;;;;;5040052;28;20243;-57
2022/12/04 12:03:02;;;;;;;25.20;15.57;;;;;;;;;;5040905;28;20204;-57
2022/12/04 12:05:43;;;;;;;25.67;16.35;;;;;;;;;;5040900;28;20430;-57
2022/12/04 12:08:14;;;;;;;25.33;15.18;;;;;;;;;;5040468;28;20201;-56
2022/12/04 12:10:43;;;;;;;22.25;14.52;;;;;;;;;;5041010;28;20202;-58
2022/12/04 12:13:17;;;;;;;22.42;14.35;;;;;;;;;;5040656;28;20198;-57
2022/12/04 12:15:48;;;;;;;21.80;14.45;;;;;;;;;;5040687;28;20203;-57
2022/12/04 12:18:21;;;;;;;26.95;15.20;;;;;;;;;;5040357;28;20403;-57
2022/12/04 12:20:53;;;;;;;27.30;15.93;;;;;;;;;;5040433;28;20228;-57
2022/12/04 12:23:23;;;;;;;27.52;16.63;;;;;;;;;;5040625;28;20198;-57
2022/12/04 12:25:55;;;;;;;23.25;15.68;;;;;;;;;;5040379;28;20201;-57
2022/12/04 12:28:30;;;;;;;23.30;14.05;;;;;;;;;;5040237;28;20219;-58
2022/12/04 12:31:04;;;;;;;23.45;14.90;;;;;;;;;;5040722;28;20197;-58
2022/12/04 12:33:34;;;;;;;22.42;13.90;;;;;;;;;;5040571;28;20223;-57
2022/12/04 12:36:03;;;;;;;21.63;13.55;;;;;;;;;;5040395;28;20201;-57
2022/12/04 12:38:32;;;;;;;22.90;14.90;;;;;;;;;;5040038;28;20198;-58
2022/12/04 12:41:01;;;;;;;22.40;14.77;;;;;;;;;;5040097;28;20198;-57
2022/12/04 12:43:29;;;;;;;21.33;14.77;;;;;;;;;;5040039;28;20198;-57
2022/12/04 12:46:00;;;;;;;23.75;14.82;;;;;;;;;;5040207;28;20230;-57
2022/12/04 12:48:28;;;;;;;28.35;16.65;;;;;;;;;;5040121;28;20248;-57
2022/12/04 12:50:58;;;;;;;28.15;17.77;;;;;;;;;;5040205;28;20193;-58
2022/12/04 12:53:26;;;;;;;20.92;13.30;;;;;;;;;;5039946;28;20212;-57
2022/12/04 12:55:53;;;;;;;22.38;14.73;;;;;;;;;;5039820;28;20208;-57
2022/12/04 12:58:24;;;;;;;24.05;15.50;;;;;;;;;;5039841;28;20204;-56
2022/12/04 13:00:54;;;;;;;23.65;14.00;;;;;;;;;;5039965;28;20268;-58
2022/12/04 13:03:25;;;;;;;25.83;15.23;;;;;;;;;;5039890;28;20392;-55
2022/12/04 13:05:54;;;;;;;20.73;14.15;;;;;;;;;;5039765;28;20224;-57
2022/12/04 13:08:24;;;;;;;22.63;14.40;;;;;;;;;;5039627;28;20198;-57
2022/12/04 13:10:55;;;;;;;23.60;14.73;;;;;;;;;;5039853;28;20279;-56
2022/12/04 13:13:24;;;;;;;24.80;14.93;;;;;;;;;;5039728;28;20261;-57
2022/12/04 13:15:53;;;;;;;24.63;14.70;;;;;;;;;;5039612;28;20502;-57
2022/12/04 13:18:23;;;;;;;25.35;15.23;;;;;;;;;;5039496;28;20205;-57
2022/12/04 13:20:52;;;;;;;24.00;14.77;;;;;;;;;;5039334;28;20365;-58
2022/12/04 13:23:25;;;;;;;23.25;14.65;;;;;;;;;;5039696;28;20198;-57
2022/12/04 13:25:57;;;;;;;22.23;14.93;;;;;;;;;;5039542;28;20220;-57
2022/12/04 13:28:28;;;;;;;25.83;15.60;;;;;;;;;;5039361;28;20224;-57
2022/12/04 13:30:57;;;;;;;24.90;14.90;;;;;;;;;;5039590;28;20232;-57
2022/12/04 13:33:33;;;;;;;23.80;14.68;;;;;;;;;;5039401;28;20186;-58
2022/12/04 13:36:15;;;;;;;24.10;15.75;;;;;;;;;;5039568;28;20509;-57
2022/12/04 13:38:48;;;;;;;26.95;16.20;;;;;;;;;;5039081;28;20208;-58
2022/12/04 13:41:18;;;;;;;33.10;16.77;;;;;;;;;;5039553;28;20404;-58
2022/12/04 13:43:45;;;;;;;30.55;16.30;;;;;;;;;;5039208;28;20211;-58
2022/12/04 13:46:23;;;;;;;28.52;16.08;;;;;;;;;;5039119;28;20256;-58
2022/12/04 13:48:49;;;;;;;24.33;15.48;;;;;;;;;;5039157;28;20197;-58
2022/12/04 13:51:23;;;;;;;29.20;16.27;;;;;;;;;;5039126;28;20269;-58
2022/12/04 13:54:00;;;;;;;29.40;16.77;;;;;;;;;;5039135;28;20208;-58
2022/12/04 13:56:28;;;;;;;26.83;16.55;;;;;;;;;;5039384;28;20494;-57
2022/12/04 13:59:01;;;;;;;27.95;16.63;;;;;;;;;;5038961;28;20269;-58
2022/12/04 14:01:29;;;;;;;31.30;16.67;;;;;;;;;;5039110;28;20248;-57
2022/12/04 14:03:56;;;;;;;30.30;17.80;;;;;;;;;;5039105;28;20219;-58
2022/12/04 14:06:23;;;;;;;28.77;16.95;;;;;;;;;;5038906;28;20241;-58
2022/12/04 14:08:54;;;;;;;28.75;16.83;;;;;;;;;;5038957;28;20205;-58
2022/12/04 14:11:22;;;;;;;24.23;16.10;;;;;;;;;;5038919;28;20206;-58
2022/12/04 14:13:50;;;;;;;31.38;17.35;;;;;;;;;;5039104;28;20205;-58
2022/12/04 14:16:19;;;;;;;28.13;17.17;;;;;;;;;;5038913;28;20243;-58
2022/12/04 14:18:47;;;;;;;30.63;16.80;;;;;;;;;;5038575;28;20363;-58
2022/12/04 14:21:13;;;;;;;28.08;16.02;;;;;;;;;;5038702;28;20512;-55
2022/12/04 14:23:40;;;;;;;30.20;16.33;;;;;;;;;;5040337;28;20197;-58
2022/12/04 14:26:19;;;;;;;26.25;16.10;;;;;;;;;;5042688;28;20289;-58
2022/12/04 14:28:45;;;;;;;29.48;16.73;;;;;;;;;;5042707;28;20288;-58
2022/12/04 14:31:21;;;;;;;27.52;15.98;;;;;;;;;;5042713;28;20208;-58
2022/12/04 14:33:50;;;;;;;29.10;17.00;;;;;;;;;;5042365;28;20202;-58